sensor_id;sensor_type;location;lat;lon;timestamp;P1;durP1;ratioP1;P2;durP2;ratioP2
3141;SDS011;1581;51.568;6.998;2023-04-03T00:01:08;7.30;;;4.90;;
3141;SDS011;1581;51.568;6.998;2023-04-03T00:03:36;7.47;;;4.73;;
3141;SDS011;1581;51.568;6.998;2023-04-03T00:06:04;7.47;;;4.87;;
3141;SDS011;1581;51.568;6.998;2023-04-03T00:08:33;9.83;;;5.03;;
3141;SDS011;1581;51.568;6.998;2023-04-03T00:11:02;10.90;;;5.07;;
3141;SDS011;1581;51.568;6.998;2023-04-03T00:13:32;7.40;;;5.57;;
3141;SDS011;1581;51.568;6.998;2023-04-03T00:16:00;9.63;;;4.93;;
3141;SDS011;1581;51.568;6.998;2023-04-03T00:18:28;8.60;;;4.80;;
3141;SDS011;1581;51.568;6.998;2023-04-03T00:20:57;6.80;;;4.40;;
3141;SDS011;1581;51.568;6.998;2023-04-03T00:23:25;5.03;;;3.67;;
3141;SDS011;1581;51.568;6.998;2023-04-03T00:25:53;10.77;;;3.90;;
3141;SDS011;1581;51.568;6.998;2023-04-03T00:28:21;5.47;;;3.73;;
3141;SDS011;1581;51.568;6.998;2023-04-03T00:30:50;7.60;;;3.43;;
3141;SDS011;1581;51.568;6.998;2023-04-03T00:33:18;6.67;;;3.40;;
3141;SDS011;1581;51.568;6.998;2023-04-03T00:35:47;9.30;;;3.10;;
3141;SDS011;1581;51.568;6.998;2023-04-03T00:38:15;6.87;;;3.00;;
3141;SDS011;1581;51.568;6.998;2023-04-03T00:40:45;4.77;;;3.30;;
3141;SDS011;1581;51.568;6.998;2023-04-03T00:43:16;8.63;;;3.20;;
3141;SDS011;1581;51.568;6.998;2023-04-03T00:45:47;5.37;;;3.00;;
3141;SDS011;1581;51.568;6.998;2023-04-03T00:48:18;8.87;;;2.80;;
3141;SDS011;1581;51.568;6.998;2023-04-03T00:50:50;6.43;;;2.43;;
3141;SDS011;1581;51.568;6.998;2023-04-03T00:53:19;6.70;;;2.77;;
3141;SDS011;1581;51.568;6.998;2023-04-03T00:55:52;4.00;;;2.10;;
3141;SDS011;1581;51.568;6.998;2023-04-03T00:58:23;4.53;;;2.37;;
3141;SDS011;1581;51.568;6.998;2023-04-03T01:00:59;7.83;;;2.63;;
3141;SDS011;1581;51.568;6.998;2023-04-03T01:03:36;2.53;;;1.90;;
3141;SDS011;1581;51.568;6.998;2023-04-03T01:06:04;3.03;;;1.70;;
3141;SDS011;1581;51.568;6.998;2023-04-03T01:08:32;5.40;;;2.23;;
3141;SDS011;1581;51.568;6.998;2023-04-03T01:11:02;5.80;;;1.97;;
3141;SDS011;1581;51.568;6.998;2023-04-03T01:13:30;6.73;;;1.70;;
3141;SDS011;1581;51.568;6.998;2023-04-03T01:16:00;4.27;;;1.83;;
3141;SDS011;1581;51.568;6.998;2023-04-03T01:18:29;5.50;;;1.63;;
3141;SDS011;1581;51.568;6.998;2023-04-03T01:21:06;5.60;;;2.10;;
3141;SDS011;1581;51.568;6.998;2023-04-03T01:24:10;4.80;;;1.70;;
3141;SDS011;1581;51.568;6.998;2023-04-03T01:27:04;2.43;;;1.30;;
3141;SDS011;1581;51.568;6.998;2023-04-03T01:29:34;3.37;;;2.00;;
3141;SDS011;1581;51.568;6.998;2023-04-03T01:32:03;3.73;;;1.40;;
3141;SDS011;1581;51.568;6.998;2023-04-03T01:34:32;4.23;;;1.80;;
3141;SDS011;1581;51.568;6.998;2023-04-03T01:36:59;3.33;;;1.57;;
3141;SDS011;1581;51.568;6.998;2023-04-03T01:39:28;6.00;;;1.80;;
3141;SDS011;1581;51.568;6.998;2023-04-03T01:41:55;2.30;;;1.47;;
3141;SDS011;1581;51.568;6.998;2023-04-03T01:44:24;4.33;;;2.00;;
3141;SDS011;1581;51.568;6.998;2023-04-03T01:46:55;3.70;;;1.70;;
3141;SDS011;1581;51.568;6.998;2023-04-03T01:49:24;13.13;;;1.80;;
3141;SDS011;1581;51.568;6.998;2023-04-03T01:51:52;2.23;;;1.40;;
3141;SDS011;1581;51.568;6.998;2023-04-03T01:54:20;5.40;;;1.70;;
3141;SDS011;1581;51.568;6.998;2023-04-03T01:56:48;4.07;;;1.83;;
3141;SDS011;1581;51.568;6.998;2023-04-03T01:59:16;3.33;;;1.40;;
3141;SDS011;1581;51.568;6.998;2023-04-03T02:01:44;9.20;;;2.00;;
3141;SDS011;1581;51.568;6.998;2023-04-03T02:04:12;4.20;;;1.80;;
3141;SDS011;1581;51.568;6.998;2023-04-03T02:06:41;5.63;;;1.83;;
3141;SDS011;1581;51.568;6.998;2023-04-03T02:09:09;1.83;;;1.30;;
3141;SDS011;1581;51.568;6.998;2023-04-03T02:11:36;3.93;;;1.70;;
3141;SDS011;1581;51.568;6.998;2023-04-03T02:14:04;4.67;;;1.33;;
3141;SDS011;1581;51.568;6.998;2023-04-03T02:16:33;4.00;;;1.40;;
3141;SDS011;1581;51.568;6.998;2023-04-03T02:19:04;5.43;;;2.03;;
3141;SDS011;1581;51.568;6.998;2023-04-03T02:21:35;4.57;;;1.37;;
3141;SDS011;1581;51.568;6.998;2023-04-03T02:24:07;7.20;;;1.50;;
3141;SDS011;1581;51.568;6.998;2023-04-03T02:26:35;8.30;;;1.73;;
3141;SDS011;1581;51.568;6.998;2023-04-03T02:29:03;3.53;;;1.57;;
3141;SDS011;1581;51.568;6.998;2023-04-03T02:31:31;4.57;;;1.63;;
3141;SDS011;1581;51.568;6.998;2023-04-03T02:33:59;1.57;;;1.30;;
3141;SDS011;1581;51.568;6.998;2023-04-03T02:36:27;7.13;;;1.90;;
3141;SDS011;1581;51.568;6.998;2023-04-03T02:38:58;4.17;;;1.47;;
3141;SDS011;1581;51.568;6.998;2023-04-03T02:41:27;3.63;;;1.50;;
3141;SDS011;1581;51.568;6.998;2023-04-03T02:43:59;6.93;;;1.70;;
3141;SDS011;1581;51.568;6.998;2023-04-03T02:46:27;4.67;;;1.60;;
3141;SDS011;1581;51.568;6.998;2023-04-03T02:48:55;7.83;;;2.00;;
3141;SDS011;1581;51.568;6.998;2023-04-03T02:51:23;4.67;;;1.40;;
3141;SDS011;1581;51.568;6.998;2023-04-03T02:53:51;3.53;;;1.40;;
3141;SDS011;1581;51.568;6.998;2023-04-03T02:56:19;8.13;;;2.40;;
3141;SDS011;1581;51.568;6.998;2023-04-03T02:58:49;2.80;;;1.47;;
3141;SDS011;1581;51.568;6.998;2023-04-03T03:01:18;2.67;;;1.53;;
3141;SDS011;1581;51.568;6.998;2023-04-03T03:03:46;3.40;;;1.67;;
3141;SDS011;1581;51.568;6.998;2023-04-03T03:06:15;2.90;;;1.40;;
3141;SDS011;1581;51.568;6.998;2023-04-03T03:08:44;4.20;;;1.90;;
3141;SDS011;1581;51.568;6.998;2023-04-03T03:11:12;2.57;;;1.50;;
3141;SDS011;1581;51.568;6.998;2023-04-03T03:13:40;6.20;;;1.60;;
3141;SDS011;1581;51.568;6.998;2023-04-03T03:16:09;3.87;;;1.47;;
3141;SDS011;1581;51.568;6.998;2023-04-03T03:18:38;10.87;;;2.00;;
3141;SDS011;1581;51.568;6.998;2023-04-03T03:21:06;3.60;;;1.83;;
3141;SDS011;1581;51.568;6.998;2023-04-03T03:23:36;4.37;;;2.10;;
3141;SDS011;1581;51.568;6.998;2023-04-03T03:26:05;2.83;;;1.40;;
3141;SDS011;1581;51.568;6.998;2023-04-03T03:28:36;4.50;;;1.40;;
3141;SDS011;1581;51.568;6.998;2023-04-03T03:31:06;5.73;;;1.80;;
3141;SDS011;1581;51.568;6.998;2023-04-03T03:33:37;3.90;;;1.60;;
3141;SDS011;1581;51.568;6.998;2023-04-03T03:36:06;2.50;;;1.33;;
3141;SDS011;1581;51.568;6.998;2023-04-03T03:38:35;3.40;;;1.20;;
3141;SDS011;1581;51.568;6.998;2023-04-03T03:41:03;5.03;;;1.90;;
3141;SDS011;1581;51.568;6.998;2023-04-03T03:43:32;9.60;;;1.67;;
3141;SDS011;1581;51.568;6.998;2023-04-03T03:46:00;8.00;;;1.83;;
3141;SDS011;1581;51.568;6.998;2023-04-03T03:48:27;3.53;;;1.70;;
3141;SDS011;1581;51.568;6.998;2023-04-03T03:50:57;3.20;;;1.73;;
3141;SDS011;1581;51.568;6.998;2023-04-03T03:53:24;3.53;;;1.57;;
3141;SDS011;1581;51.568;6.998;2023-04-03T03:55:52;3.73;;;1.43;;
3141;SDS011;1581;51.568;6.998;2023-04-03T03:58:20;3.53;;;2.03;;
3141;SDS011;1581;51.568;6.998;2023-04-03T04:00:48;4.77;;;1.47;;
3141;SDS011;1581;51.568;6.998;2023-04-03T04:03:17;2.93;;;1.50;;
3141;SDS011;1581;51.568;6.998;2023-04-03T04:05:46;1.63;;;1.53;;
3141;SDS011;1581;51.568;6.998;2023-04-03T04:08:17;5.50;;;1.50;;
3141;SDS011;1581;51.568;6.998;2023-04-03T04:10:45;6.10;;;1.50;;
3141;SDS011;1581;51.568;6.998;2023-04-03T04:13:13;8.00;;;1.60;;
3141;SDS011;1581;51.568;6.998;2023-04-03T04:15:42;4.90;;;1.70;;
3141;SDS011;1581;51.568;6.998;2023-04-03T04:18:12;5.57;;;2.00;;
3141;SDS011;1581;51.568;6.998;2023-04-03T04:20:40;5.90;;;1.87;;
3141;SDS011;1581;51.568;6.998;2023-04-03T04:23:09;4.37;;;2.17;;
3141;SDS011;1581;51.568;6.998;2023-04-03T04:25:38;6.57;;;1.83;;
3141;SDS011;1581;51.568;6.998;2023-04-03T04:28:07;7.50;;;1.90;;
3141;SDS011;1581;51.568;6.998;2023-04-03T04:30:36;4.00;;;2.13;;
3141;SDS011;1581;51.568;6.998;2023-04-03T04:33:04;9.30;;;2.30;;
3141;SDS011;1581;51.568;6.998;2023-04-03T04:35:32;8.23;;;2.23;;
3141;SDS011;1581;51.568;6.998;2023-04-03T04:38:00;7.40;;;1.93;;
3141;SDS011;1581;51.568;6.998;2023-04-03T04:40:28;8.03;;;1.87;;
3141;SDS011;1581;51.568;6.998;2023-04-03T04:42:58;6.20;;;2.67;;
3141;SDS011;1581;51.568;6.998;2023-04-03T04:45:26;9.63;;;1.90;;
3141;SDS011;1581;51.568;6.998;2023-04-03T04:47:54;6.20;;;1.40;;
3141;SDS011;1581;51.568;6.998;2023-04-03T04:50:22;10.57;;;1.80;;
3141;SDS011;1581;51.568;6.998;2023-04-03T04:52:50;5.80;;;1.70;;
3141;SDS011;1581;51.568;6.998;2023-04-03T04:55:18;5.27;;;1.70;;
3141;SDS011;1581;51.568;6.998;2023-04-03T04:57:47;10.37;;;2.37;;
3141;SDS011;1581;51.568;6.998;2023-04-03T05:00:16;6.20;;;1.63;;
3141;SDS011;1581;51.568;6.998;2023-04-03T05:02:45;5.97;;;2.20;;
3141;SDS011;1581;51.568;6.998;2023-04-03T05:05:13;4.33;;;2.10;;
3141;SDS011;1581;51.568;6.998;2023-04-03T05:07:42;2.80;;;1.60;;
3141;SDS011;1581;51.568;6.998;2023-04-03T05:10:10;1.83;;;1.43;;
3141;SDS011;1581;51.568;6.998;2023-04-03T05:12:37;3.20;;;2.00;;
3141;SDS011;1581;51.568;6.998;2023-04-03T05:15:06;6.23;;;2.10;;
3141;SDS011;1581;51.568;6.998;2023-04-03T05:17:39;6.10;;;2.43;;
3141;SDS011;1581;51.568;6.998;2023-04-03T05:20:07;5.37;;;1.93;;
3141;SDS011;1581;51.568;6.998;2023-04-03T05:22:37;4.83;;;2.10;;
3141;SDS011;1581;51.568;6.998;2023-04-03T05:25:05;2.53;;;1.43;;
3141;SDS011;1581;51.568;6.998;2023-04-03T05:27:33;2.73;;;1.80;;
3141;SDS011;1581;51.568;6.998;2023-04-03T05:30:01;11.60;;;2.37;;
3141;SDS011;1581;51.568;6.998;2023-04-03T05:32:31;7.73;;;2.10;;
3141;SDS011;1581;51.568;6.998;2023-04-03T05:35:01;4.60;;;2.13;;
3141;SDS011;1581;51.568;6.998;2023-04-03T05:37:29;2.73;;;1.73;;
3141;SDS011;1581;51.568;6.998;2023-04-03T05:39:57;7.83;;;2.37;;
3141;SDS011;1581;51.568;6.998;2023-04-03T05:42:25;3.77;;;2.00;;
3141;SDS011;1581;51.568;6.998;2023-04-03T05:44:52;7.67;;;2.17;;
3141;SDS011;1581;51.568;6.998;2023-04-03T05:47:20;4.10;;;2.07;;
3141;SDS011;1581;51.568;6.998;2023-04-03T05:49:49;9.00;;;2.30;;
3141;SDS011;1581;51.568;6.998;2023-04-03T05:52:20;4.83;;;1.93;;
3141;SDS011;1581;51.568;6.998;2023-04-03T05:54:49;4.53;;;1.77;;
3141;SDS011;1581;51.568;6.998;2023-04-03T05:57:18;10.50;;;2.33;;
3141;SDS011;1581;51.568;6.998;2023-04-03T05:59:46;3.73;;;1.80;;
3141;SDS011;1581;51.568;6.998;2023-04-03T06:02:16;4.63;;;1.80;;
3141;SDS011;1581;51.568;6.998;2023-04-03T06:04:46;4.10;;;1.67;;
3141;SDS011;1581;51.568;6.998;2023-04-03T06:07:14;3.47;;;1.90;;
3141;SDS011;1581;51.568;6.998;2023-04-03T06:09:46;2.00;;;1.60;;
3141;SDS011;1581;51.568;6.998;2023-04-03T06:12:14;6.57;;;2.13;;
3141;SDS011;1581;51.568;6.998;2023-04-03T06:14:42;1.87;;;1.50;;
3141;SDS011;1581;51.568;6.998;2023-04-03T06:17:10;6.17;;;2.20;;
3141;SDS011;1581;51.568;6.998;2023-04-03T06:19:38;5.37;;;1.97;;
3141;SDS011;1581;51.568;6.998;2023-04-03T06:22:06;3.53;;;1.97;;
3141;SDS011;1581;51.568;6.998;2023-04-03T06:24:35;3.73;;;1.63;;
3141;SDS011;1581;51.568;6.998;2023-04-03T06:27:03;9.80;;;2.47;;
3141;SDS011;1581;51.568;6.998;2023-04-03T06:29:31;8.80;;;2.63;;
3141;SDS011;1581;51.568;6.998;2023-04-03T06:31:59;6.60;;;3.00;;
3141;SDS011;1581;51.568;6.998;2023-04-03T06:34:26;4.90;;;2.60;;
3141;SDS011;1581;51.568;6.998;2023-04-03T06:36:54;4.43;;;1.67;;
3141;SDS011;1581;51.568;6.998;2023-04-03T06:39:22;10.07;;;2.60;;
3141;SDS011;1581;51.568;6.998;2023-04-03T06:41:51;4.13;;;2.20;;
3141;SDS011;1581;51.568;6.998;2023-04-03T06:44:19;4.97;;;1.70;;
3141;SDS011;1581;51.568;6.998;2023-04-03T06:46:48;3.43;;;1.70;;
3141;SDS011;1581;51.568;6.998;2023-04-03T06:49:17;7.77;;;2.20;;
3141;SDS011;1581;51.568;6.998;2023-04-03T06:51:44;5.27;;;1.87;;
3141;SDS011;1581;51.568;6.998;2023-04-03T06:54:12;5.67;;;1.97;;
3141;SDS011;1581;51.568;6.998;2023-04-03T06:56:40;8.87;;;2.80;;
3141;SDS011;1581;51.568;6.998;2023-04-03T06:59:10;5.20;;;2.33;;
3141;SDS011;1581;51.568;6.998;2023-04-03T07:01:39;3.70;;;1.80;;
3141;SDS011;1581;51.568;6.998;2023-04-03T07:04:08;6.00;;;1.60;;
3141;SDS011;1581;51.568;6.998;2023-04-03T07:06:36;10.73;;;3.50;;
3141;SDS011;1581;51.568;6.998;2023-04-03T07:09:05;3.20;;;1.50;;
3141;SDS011;1581;51.568;6.998;2023-04-03T07:11:33;5.67;;;2.07;;
3141;SDS011;1581;51.568;6.998;2023-04-03T07:14:02;3.23;;;1.70;;
3141;SDS011;1581;51.568;6.998;2023-04-03T07:16:32;6.23;;;1.63;;
3141;SDS011;1581;51.568;6.998;2023-04-03T07:19:00;2.20;;;1.37;;
3141;SDS011;1581;51.568;6.998;2023-04-03T07:21:28;3.80;;;1.90;;
3141;SDS011;1581;51.568;6.998;2023-04-03T07:23:56;3.33;;;1.60;;
3141;SDS011;1581;51.568;6.998;2023-04-03T07:26:24;7.80;;;2.47;;
3141;SDS011;1581;51.568;6.998;2023-04-03T07:28:52;7.57;;;2.57;;
3141;SDS011;1581;51.568;6.998;2023-04-03T07:31:19;4.30;;;1.30;;
3141;SDS011;1581;51.568;6.998;2023-04-03T07:33:49;7.30;;;1.83;;
3141;SDS011;1581;51.568;6.998;2023-04-03T07:36:18;5.87;;;1.57;;
3141;SDS011;1581;51.568;6.998;2023-04-03T07:38:48;9.70;;;1.60;;
3141;SDS011;1581;51.568;6.998;2023-04-03T07:41:19;3.97;;;1.80;;
3141;SDS011;1581;51.568;6.998;2023-04-03T07:43:48;4.03;;;1.63;;
3141;SDS011;1581;51.568;6.998;2023-04-03T07:46:17;6.50;;;2.30;;
3141;SDS011;1581;51.568;6.998;2023-04-03T07:48:45;5.27;;;1.83;;
3141;SDS011;1581;51.568;6.998;2023-04-03T07:51:15;4.20;;;1.40;;
3141;SDS011;1581;51.568;6.998;2023-04-03T07:53:42;4.07;;;1.47;;
3141;SDS011;1581;51.568;6.998;2023-04-03T07:56:11;6.30;;;1.33;;
3141;SDS011;1581;51.568;6.998;2023-04-03T07:58:39;3.40;;;1.40;;
3141;SDS011;1581;51.568;6.998;2023-04-03T08:01:06;2.13;;;1.60;;
3141;SDS011;1581;51.568;6.998;2023-04-03T08:03:34;4.53;;;1.30;;
3141;SDS011;1581;51.568;6.998;2023-04-03T08:06:03;2.03;;;1.83;;
3141;SDS011;1581;51.568;6.998;2023-04-03T08:08:34;6.57;;;1.93;;
3141;SDS011;1581;51.568;6.998;2023-04-03T08:11:02;2.13;;;1.30;;
3141;SDS011;1581;51.568;6.998;2023-04-03T08:13:32;3.53;;;1.77;;
3141;SDS011;1581;51.568;6.998;2023-04-03T08:16:06;6.97;;;1.00;;
3141;SDS011;1581;51.568;6.998;2023-04-03T08:18:42;6.57;;;2.10;;
3141;SDS011;1581;51.568;6.998;2023-04-03T08:21:13;5.20;;;1.83;;
3141;SDS011;1581;51.568;6.998;2023-04-03T08:23:47;5.57;;;1.40;;
3141;SDS011;1581;51.568;6.998;2023-04-03T08:26:16;2.57;;;1.30;;
3141;SDS011;1581;51.568;6.998;2023-04-03T08:28:49;4.47;;;1.40;;
3141;SDS011;1581;51.568;6.998;2023-04-03T08:31:18;3.00;;;1.33;;
3141;SDS011;1581;51.568;6.998;2023-04-03T08:33:46;2.73;;;1.23;;
3141;SDS011;1581;51.568;6.998;2023-04-03T08:36:18;2.10;;;1.50;;
3141;SDS011;1581;51.568;6.998;2023-04-03T08:38:50;4.90;;;1.47;;
3141;SDS011;1581;51.568;6.998;2023-04-03T08:41:20;3.90;;;1.53;;
3141;SDS011;1581;51.568;6.998;2023-04-03T08:43:58;11.17;;;1.43;;
3141;SDS011;1581;51.568;6.998;2023-04-03T08:46:43;8.90;;;1.63;;
3141;SDS011;1581;51.568;6.998;2023-04-03T08:49:38;4.83;;;1.60;;
3141;SDS011;1581;51.568;6.998;2023-04-03T08:52:13;7.30;;;1.47;;
3141;SDS011;1581;51.568;6.998;2023-04-03T08:54:49;6.17;;;1.50;;
3141;SDS011;1581;51.568;6.998;2023-04-03T08:57:22;4.63;;;1.13;;
3141;SDS011;1581;51.568;6.998;2023-04-03T08:59:57;3.90;;;1.47;;
3141;SDS011;1581;51.568;6.998;2023-04-03T09:02:41;2.20;;;1.37;;
3141;SDS011;1581;51.568;6.998;2023-04-03T09:05:12;2.60;;;1.23;;
3141;SDS011;1581;51.568;6.998;2023-04-03T09:07:45;5.13;;;1.30;;
3141;SDS011;1581;51.568;6.998;2023-04-03T09:10:24;2.33;;;0.93;;
3141;SDS011;1581;51.568;6.998;2023-04-03T09:12:58;4.33;;;1.30;;
3141;SDS011;1581;51.568;6.998;2023-04-03T09:15:33;3.73;;;1.40;;
3141;SDS011;1581;51.568;6.998;2023-04-03T09:18:05;3.60;;;1.47;;
3141;SDS011;1581;51.568;6.998;2023-04-03T09:20:42;5.40;;;1.13;;
3141;SDS011;1581;51.568;6.998;2023-04-03T09:23:19;3.67;;;1.27;;
3141;SDS011;1581;51.568;6.998;2023-04-03T09:26:00;4.33;;;1.60;;
3141;SDS011;1581;51.568;6.998;2023-04-03T09:28:33;5.10;;;1.27;;
3141;SDS011;1581;51.568;6.998;2023-04-03T09:31:11;2.53;;;1.23;;
3141;SDS011;1581;51.568;6.998;2023-04-03T09:33:46;1.93;;;0.87;;
3141;SDS011;1581;51.568;6.998;2023-04-03T09:39:11;2.60;;;1.20;;
3141;SDS011;1581;51.568;6.998;2023-04-03T09:41:43;1.90;;;1.10;;
3141;SDS011;1581;51.568;6.998;2023-04-03T09:44:27;4.07;;;1.43;;
3141;SDS011;1581;51.568;6.998;2023-04-03T09:46:58;1.47;;;0.93;;
3141;SDS011;1581;51.568;6.998;2023-04-03T09:49:33;2.03;;;1.23;;
3141;SDS011;1581;51.568;6.998;2023-04-03T09:52:06;2.30;;;0.90;;
3141;SDS011;1581;51.568;6.998;2023-04-03T09:54:46;1.53;;;1.00;;
3141;SDS011;1581;51.568;6.998;2023-04-03T09:57:15;1.47;;;0.80;;
3141;SDS011;1581;51.568;6.998;2023-04-03T09:59:47;4.40;;;0.80;;
3141;SDS011;1581;51.568;6.998;2023-04-03T10:02:29;1.13;;;1.00;;
3141;SDS011;1581;51.568;6.998;2023-04-03T10:05:02;1.00;;;1.00;;
3141;SDS011;1581;51.568;6.998;2023-04-03T10:07:50;3.20;;;0.93;;
3141;SDS011;1581;51.568;6.998;2023-04-03T10:10:19;1.40;;;1.30;;
3141;SDS011;1581;51.568;6.998;2023-04-03T10:13:03;1.80;;;1.13;;
3141;SDS011;1581;51.568;6.998;2023-04-03T10:15:35;2.40;;;0.80;;
3141;SDS011;1581;51.568;6.998;2023-04-03T10:18:12;1.43;;;0.70;;
3141;SDS011;1581;51.568;6.998;2023-04-03T10:20:57;2.10;;;0.90;;
3141;SDS011;1581;51.568;6.998;2023-04-03T10:23:36;4.40;;;1.00;;
3141;SDS011;1581;51.568;6.998;2023-04-03T10:26:10;2.30;;;0.90;;
3141;SDS011;1581;51.568;6.998;2023-04-03T10:28:55;2.40;;;1.60;;
3141;SDS011;1581;51.568;6.998;2023-04-03T10:31:32;2.17;;;1.43;;
3141;SDS011;1581;51.568;6.998;2023-04-03T10:34:13;2.57;;;0.70;;
3141;SDS011;1581;51.568;6.998;2023-04-03T10:36:48;1.80;;;1.07;;
3141;SDS011;1581;51.568;6.998;2023-04-03T10:39:23;3.13;;;1.00;;
3141;SDS011;1581;51.568;6.998;2023-04-03T10:42:02;1.83;;;1.03;;
3141;SDS011;1581;51.568;6.998;2023-04-03T10:44:46;0.90;;;0.90;;
3141;SDS011;1581;51.568;6.998;2023-04-03T10:47:30;2.53;;;1.43;;
3141;SDS011;1581;51.568;6.998;2023-04-03T10:50:12;3.90;;;1.33;;
3141;SDS011;1581;51.568;6.998;2023-04-03T10:53:00;1.93;;;1.00;;
3141;SDS011;1581;51.568;6.998;2023-04-03T10:55:39;1.60;;;0.90;;
3141;SDS011;1581;51.568;6.998;2023-04-03T10:58:14;2.40;;;1.10;;
3141;SDS011;1581;51.568;6.998;2023-04-03T11:00:53;2.93;;;1.13;;
3141;SDS011;1581;51.568;6.998;2023-04-03T11:03:29;1.63;;;0.90;;
3141;SDS011;1581;51.568;6.998;2023-04-03T11:06:06;4.00;;;1.10;;
3141;SDS011;1581;51.568;6.998;2023-04-03T11:08:42;1.90;;;1.20;;
3141;SDS011;1581;51.568;6.998;2023-04-03T11:11:19;1.87;;;0.90;;
3141;SDS011;1581;51.568;6.998;2023-04-03T11:14:05;2.77;;;0.90;;
3141;SDS011;1581;51.568;6.998;2023-04-03T11:16:44;8.10;;;1.47;;
3141;SDS011;1581;51.568;6.998;2023-04-03T11:19:18;1.30;;;1.00;;
3141;SDS011;1581;51.568;6.998;2023-04-03T11:21:51;5.93;;;1.13;;
3141;SDS011;1581;51.568;6.998;2023-04-03T11:24:24;3.53;;;1.20;;
3141;SDS011;1581;51.568;6.998;2023-04-03T11:26:55;2.70;;;1.20;;
3141;SDS011;1581;51.568;6.998;2023-04-03T11:29:26;3.30;;;0.90;;
3141;SDS011;1581;51.568;6.998;2023-04-03T11:32:11;2.27;;;1.00;;
3141;SDS011;1581;51.568;6.998;2023-04-03T11:35:13;3.13;;;1.20;;
3141;SDS011;1581;51.568;6.998;2023-04-03T11:37:44;2.07;;;1.30;;
3141;SDS011;1581;51.568;6.998;2023-04-03T11:40:21;2.33;;;1.23;;
3141;SDS011;1581;51.568;6.998;2023-04-03T11:42:53;2.23;;;1.23;;
3141;SDS011;1581;51.568;6.998;2023-04-03T11:45:36;5.40;;;2.00;;
3141;SDS011;1581;51.568;6.998;2023-04-03T11:51:37;7.53;;;2.53;;
3141;SDS011;1581;51.568;6.998;2023-04-03T12:00:47;2.90;;;1.13;;
3141;SDS011;1581;51.568;6.998;2023-04-03T12:12:43;1.30;;;1.20;;
3141;SDS011;1581;51.568;6.998;2023-04-03T12:24:38;2.37;;;1.03;;
3141;SDS011;1581;51.568;6.998;2023-04-03T12:30:15;1.30;;;1.07;;
3141;SDS011;1581;51.568;6.998;2023-04-03T12:32:55;1.23;;;1.00;;
3141;SDS011;1581;51.568;6.998;2023-04-03T12:35:43;1.43;;;1.10;;
3141;SDS011;1581;51.568;6.998;2023-04-03T12:41:37;1.52;;;0.80;;
3141;SDS011;1581;51.568;6.998;2023-04-03T12:47:13;3.10;;;1.45;;
3141;SDS011;1581;51.568;6.998;2023-04-03T12:49:50;7.72;;;1.08;;
3141;SDS011;1581;51.568;6.998;2023-04-03T12:52:25;1.33;;;0.90;;
3141;SDS011;1581;51.568;6.998;2023-04-03T12:55:12;1.50;;;1.40;;
3141;SDS011;1581;51.568;6.998;2023-04-03T12:57:42;1.40;;;1.00;;
3141;SDS011;1581;51.568;6.998;2023-04-03T13:03:04;1.42;;;1.20;;
3141;SDS011;1581;51.568;6.998;2023-04-03T13:05:45;5.10;;;1.08;;
3141;SDS011;1581;51.568;6.998;2023-04-03T13:08:19;4.43;;;0.93;;
3141;SDS011;1581;51.568;6.998;2023-04-03T13:10:52;1.33;;;0.93;;
3141;SDS011;1581;51.568;6.998;2023-04-03T13:13:24;2.83;;;1.77;;
3141;SDS011;1581;51.568;6.998;2023-04-03T13:15:52;1.85;;;1.10;;
3141;SDS011;1581;51.568;6.998;2023-04-03T13:18:25;0.80;;;0.80;;
3141;SDS011;1581;51.568;6.998;2023-04-03T13:20:57;1.38;;;1.27;;
3141;SDS011;1581;51.568;6.998;2023-04-03T13:23:31;1.00;;;1.00;;
3141;SDS011;1581;51.568;6.998;2023-04-03T13:26:03;2.25;;;1.85;;
3141;SDS011;1581;51.568;6.998;2023-04-03T13:28:33;2.80;;;1.27;;
3141;SDS011;1581;51.568;6.998;2023-04-03T13:31:03;1.08;;;0.98;;
3141;SDS011;1581;51.568;6.998;2023-04-03T13:33:36;0.88;;;0.88;;
3141;SDS011;1581;51.568;6.998;2023-04-03T13:36:06;1.70;;;0.90;;
3141;SDS011;1581;51.568;6.998;2023-04-03T13:38:42;1.38;;;1.23;;
3141;SDS011;1581;51.568;6.998;2023-04-03T13:41:23;0.80;;;0.80;;
3141;SDS011;1581;51.568;6.998;2023-04-03T13:43:56;1.45;;;1.00;;
3141;SDS011;1581;51.568;6.998;2023-04-03T13:46:40;1.42;;;1.33;;
3141;SDS011;1581;51.568;6.998;2023-04-03T13:49:17;1.23;;;1.20;;
3141;SDS011;1581;51.568;6.998;2023-04-03T13:51:57;2.80;;;1.17;;
3141;SDS011;1581;51.568;6.998;2023-04-03T13:54:28;1.42;;;1.10;;
3141;SDS011;1581;51.568;6.998;2023-04-03T13:57:00;1.45;;;1.35;;
3141;SDS011;1581;51.568;6.998;2023-04-03T13:59:37;1.08;;;1.05;;
3141;SDS011;1581;51.568;6.998;2023-04-03T14:02:17;1.00;;;1.00;;
3141;SDS011;1581;51.568;6.998;2023-04-03T14:04:49;1.30;;;1.30;;
3141;SDS011;1581;51.568;6.998;2023-04-03T14:07:24;0.95;;;0.90;;
3141;SDS011;1581;51.568;6.998;2023-04-03T14:09:53;2.17;;;0.93;;
3141;SDS011;1581;51.568;6.998;2023-04-03T14:12:26;1.80;;;1.17;;
3141;SDS011;1581;51.568;6.998;2023-04-03T14:15:02;4.35;;;1.10;;
3141;SDS011;1581;51.568;6.998;2023-04-03T14:17:40;1.85;;;1.15;;
3141;SDS011;1581;51.568;6.998;2023-04-03T14:20:13;5.45;;;1.38;;
3141;SDS011;1581;51.568;6.998;2023-04-03T14:22:43;1.95;;;1.20;;
3141;SDS011;1581;51.568;6.998;2023-04-03T14:25:14;1.92;;;1.30;;
3141;SDS011;1581;51.568;6.998;2023-04-03T14:27:45;1.58;;;1.08;;
3141;SDS011;1581;51.568;6.998;2023-04-03T14:30:16;4.50;;;1.40;;
3141;SDS011;1581;51.568;6.998;2023-04-03T14:32:46;4.45;;;0.98;;
3141;SDS011;1581;51.568;6.998;2023-04-03T14:35:15;2.72;;;1.75;;
3141;SDS011;1581;51.568;6.998;2023-04-03T14:37:44;1.63;;;1.40;;
3141;SDS011;1581;51.568;6.998;2023-04-03T14:40:15;2.70;;;1.30;;
3141;SDS011;1581;51.568;6.998;2023-04-03T14:42:48;3.05;;;1.08;;
3141;SDS011;1581;51.568;6.998;2023-04-03T14:45:16;4.47;;;1.52;;
3141;SDS011;1581;51.568;6.998;2023-04-03T14:47:49;1.90;;;1.35;;
3141;SDS011;1581;51.568;6.998;2023-04-03T14:50:22;1.42;;;0.90;;
3141;SDS011;1581;51.568;6.998;2023-04-03T14:52:56;1.23;;;1.13;;
3141;SDS011;1581;51.568;6.998;2023-04-03T14:55:25;4.90;;;1.38;;
3141;SDS011;1581;51.568;6.998;2023-04-03T14:57:55;1.48;;;1.48;;
3141;SDS011;1581;51.568;6.998;2023-04-03T15:00:23;5.22;;;1.17;;
3141;SDS011;1581;51.568;6.998;2023-04-03T15:02:51;1.35;;;1.13;;
3141;SDS011;1581;51.568;6.998;2023-04-03T15:05:24;1.35;;;1.25;;
3141;SDS011;1581;51.568;6.998;2023-04-03T15:07:55;1.42;;;1.33;;
3141;SDS011;1581;51.568;6.998;2023-04-03T15:10:26;1.20;;;1.10;;
3141;SDS011;1581;51.568;6.998;2023-04-03T15:12:57;1.30;;;1.00;;
3141;SDS011;1581;51.568;6.998;2023-04-03T15:15:27;1.02;;;1.02;;
3141;SDS011;1581;51.568;6.998;2023-04-03T15:17:58;1.00;;;1.00;;
3141;SDS011;1581;51.568;6.998;2023-04-03T15:20:27;1.60;;;1.13;;
3141;SDS011;1581;51.568;6.998;2023-04-03T15:22:58;1.92;;;1.83;;
3141;SDS011;1581;51.568;6.998;2023-04-03T15:25:27;1.58;;;1.10;;
3141;SDS011;1581;51.568;6.998;2023-04-03T15:27:56;1.10;;;1.10;;
3141;SDS011;1581;51.568;6.998;2023-04-03T15:30:26;1.20;;;1.10;;
3141;SDS011;1581;51.568;6.998;2023-04-03T15:32:54;1.40;;;1.30;;
3141;SDS011;1581;51.568;6.998;2023-04-03T15:35:22;3.03;;;2.65;;
3141;SDS011;1581;51.568;6.998;2023-04-03T15:37:53;2.10;;;1.20;;
3141;SDS011;1581;51.568;6.998;2023-04-03T15:40:25;0.95;;;0.95;;
3141;SDS011;1581;51.568;6.998;2023-04-03T15:42:53;1.13;;;1.08;;
3141;SDS011;1581;51.568;6.998;2023-04-03T15:45:23;1.10;;;1.10;;
3141;SDS011;1581;51.568;6.998;2023-04-03T15:47:52;1.05;;;1.00;;
3141;SDS011;1581;51.568;6.998;2023-04-03T15:50:21;1.25;;;1.02;;
3141;SDS011;1581;51.568;6.998;2023-04-03T15:52:49;1.13;;;1.08;;
3141;SDS011;1581;51.568;6.998;2023-04-03T15:55:19;1.05;;;1.00;;
3141;SDS011;1581;51.568;6.998;2023-04-03T15:57:48;1.83;;;1.67;;
3141;SDS011;1581;51.568;6.998;2023-04-03T16:00:16;1.10;;;1.00;;
3141;SDS011;1581;51.568;6.998;2023-04-03T16:02:47;3.00;;;1.80;;
3141;SDS011;1581;51.568;6.998;2023-04-03T16:05:18;1.45;;;1.35;;
3141;SDS011;1581;51.568;6.998;2023-04-03T16:07:46;0.93;;;0.93;;
3141;SDS011;1581;51.568;6.998;2023-04-03T16:10:16;1.42;;;1.33;;
3141;SDS011;1581;51.568;6.998;2023-04-03T16:12:45;2.72;;;1.33;;
3141;SDS011;1581;51.568;6.998;2023-04-03T16:15:13;1.30;;;1.30;;
3141;SDS011;1581;51.568;6.998;2023-04-03T16:17:41;1.55;;;1.45;;
3141;SDS011;1581;51.568;6.998;2023-04-03T16:20:11;2.08;;;1.17;;
3141;SDS011;1581;51.568;6.998;2023-04-03T16:22:40;1.17;;;1.00;;
3141;SDS011;1581;51.568;6.998;2023-04-03T16:25:08;1.73;;;1.63;;